sensor_id;sensor_type;location;lat;lon;timestamp;pressure;altitude;pressure_sealevel;temperature;humidity
32873;BME280;19224;52.462;16.898;2023-04-06T00:01:16;100933.14;;;1.67;91.63
32873;BME280;19224;52.462;16.898;2023-04-06T00:03:46;100930.91;;;1.59;92.65
32873;BME280;19224;52.462;16.898;2023-04-06T00:06:16;100936.20;;;1.60;92.44
32873;BME280;19224;52.462;16.898;2023-04-06T00:08:47;100934.89;;;1.56;92.38
32873;BME280;19224;52.462;16.898;2023-04-06T00:11:17;100934.00;;;1.52;92.35
32873;BME280;19224;52.462;16.898;2023-04-06T00:13:47;100931.31;;;1.49;92.85
32873;BME280;19224;52.462;16.898;2023-04-06T00:16:18;100933.53;;;1.48;93.06
32873;BME280;19224;52.462;16.898;2023-04-06T00:18:48;100930.87;;;1.41;94.07
32873;BME280;19224;52.462;16.898;2023-04-06T00:21:19;100936.17;;;1.38;94.21
32873;BME280;19224;52.462;16.898;2023-04-06T00:23:49;100928.69;;;1.45;93.74
32873;BME280;19224;52.462;16.898;2023-04-06T00:26:19;100934.43;;;1.46;93.53
32873;BME280;19224;52.462;16.898;2023-04-06T00:28:50;100924.23;;;1.44;94.09
32873;BME280;19224;52.462;16.898;2023-04-06T00:31:21;100926.89;;;1.35;94.84
32873;BME280;19224;52.462;16.898;2023-04-06T00:33:52;100923.35;;;1.36;94.84
32873;BME280;19224;52.462;16.898;2023-04-06T00:36:23;100928.22;;;1.38;94.60
32873;BME280;19224;52.462;16.898;2023-04-06T00:38:54;100925.53;;;1.32;94.59
32873;BME280;19224;52.462;16.898;2023-04-06T00:41:24;100923.33;;;1.30;94.75
32873;BME280;19224;52.462;16.898;2023-04-06T00:43:56;100920.23;;;1.26;95.03
32873;BME280;19224;52.462;16.898;2023-04-06T00:46:26;100922.88;;;1.32;94.80
32873;BME280;19224;52.462;16.898;2023-04-06T00:48:58;100921.98;;;1.25;94.86
32873;BME280;19224;52.462;16.898;2023-04-06T00:51:28;100920.64;;;1.18;95.73
32873;BME280;19224;52.462;16.898;2023-04-06T00:53:58;100924.63;;;1.18;95.67
32873;BME280;19224;52.462;16.898;2023-04-06T00:56:29;100927.28;;;1.15;96.03
32873;BME280;19224;52.462;16.898;2023-04-06T00:58:59;100923.72;;;1.14;95.64
32873;BME280;19224;52.462;16.898;2023-04-06T01:01:30;100922.83;;;1.11;95.96
32873;BME280;19224;52.462;16.898;2023-04-06T01:04:01;100921.05;;;1.04;96.67
32873;BME280;19224;52.462;16.898;2023-04-06T01:06:32;100919.29;;;1.06;96.59
32873;BME280;19224;52.462;16.898;2023-04-06T01:09:03;100923.69;;;1.02;97.19
32873;BME280;19224;52.462;16.898;2023-04-06T01:11:33;100923.23;;;1.00;96.80
32873;BME280;19224;52.462;16.898;2023-04-06T01:14:04;100922.34;;;0.95;97.53
32873;BME280;19224;52.462;16.898;2023-04-06T01:16:35;100919.67;;;0.90;97.79
32873;BME280;19224;52.462;16.898;2023-04-06T01:19:10;100928.94;;;0.89;97.99
32873;BME280;19224;52.462;16.898;2023-04-06T01:21:42;100927.20;;;0.91;97.39
32873;BME280;19224;52.462;16.898;2023-04-06T01:24:12;100921.44;;;0.94;97.06
32873;BME280;19224;52.462;16.898;2023-04-06T01:26:43;100928.97;;;0.95;97.12
32873;BME280;19224;52.462;16.898;2023-04-06T01:29:13;100929.45;;;1.02;97.16
32873;BME280;19224;52.462;16.898;2023-04-06T01:31:44;100926.78;;;0.97;97.69
32873;BME280;19224;52.462;16.898;2023-04-06T01:34:14;100931.22;;;1.06;97.11
32873;BME280;19224;52.462;16.898;2023-04-06T01:36:45;100926.38;;;1.08;97.34
32873;BME280;19224;52.462;16.898;2023-04-06T01:39:15;100923.74;;;1.13;96.62
32873;BME280;19224;52.462;16.898;2023-04-06T01:41:45;100925.94;;;1.07;96.68
32873;BME280;19224;52.462;16.898;2023-04-06T01:44:19;100924.17;;;1.09;96.68
32873;BME280;19224;52.462;16.898;2023-04-06T01:46:49;100924.58;;;1.04;96.81
32873;BME280;19224;52.462;16.898;2023-04-06T01:49:19;100924.55;;;1.00;97.06
32873;BME280;19224;52.462;16.898;2023-04-06T01:51:50;100923.70;;;1.01;97.31
32873;BME280;19224;52.462;16.898;2023-04-06T01:54:21;100921.92;;;1.01;97.20
32873;BME280;19224;52.462;16.898;2023-04-06T01:56:51;100920.14;;;0.99;97.37
32873;BME280;19224;52.462;16.898;2023-04-06T01:59:21;100917.48;;;0.90;98.24
32873;BME280;19224;52.462;16.898;2023-04-06T02:01:52;100919.25;;;0.94;97.82
32873;BME280;19224;52.462;16.898;2023-04-06T02:04:22;100917.48;;;0.90;98.45
32873;BME280;19224;52.462;16.898;2023-04-06T02:06:52;100919.25;;;0.91;98.22
32873;BME280;19224;52.462;16.898;2023-04-06T02:09:22;100921.02;;;0.98;97.79
32873;BME280;19224;52.462;16.898;2023-04-06T02:11:53;100920.58;;;1.00;97.84
32873;BME280;19224;52.462;16.898;2023-04-06T02:14:26;100917.48;;;0.99;97.76
32873;BME280;19224;52.462;16.898;2023-04-06T02:16:56;100920.58;;;0.97;97.94
32873;BME280;19224;52.462;16.898;2023-04-06T02:19:27;100922.78;;;0.96;98.19
32873;BME280;19224;52.462;16.898;2023-04-06T02:21:57;100912.63;;;0.94;98.28
32873;BME280;19224;52.462;16.898;2023-04-06T02:24:27;100913.93;;;0.89;98.44
32873;BME280;19224;52.462;16.898;2023-04-06T02:26:58;100916.59;;;0.91;98.61
32873;BME280;19224;52.462;16.898;2023-04-06T02:29:28;100913.02;;;0.86;98.82
32873;BME280;19224;52.462;16.898;2023-04-06T02:31:58;100905.99;;;0.91;98.57
32873;BME280;19224;52.462;16.898;2023-04-06T02:34:29;100907.73;;;0.87;98.46
32873;BME280;19224;52.462;16.898;2023-04-06T02:36:59;100908.61;;;0.85;98.55
32873;BME280;19224;52.462;16.898;2023-04-06T02:39:29;100909.51;;;0.88;99.03
32873;BME280;19224;52.462;16.898;2023-04-06T02:42:00;100917.91;;;0.92;98.68
32873;BME280;19224;52.462;16.898;2023-04-06T02:44:30;100915.23;;;0.88;98.96
32873;BME280;19224;52.462;16.898;2023-04-06T02:47:01;100916.14;;;0.91;98.65
32873;BME280;19224;52.462;16.898;2023-04-06T02:49:31;100917.89;;;0.88;98.86
32873;BME280;19224;52.462;16.898;2023-04-06T02:52:01;100915.72;;;0.92;98.61
32873;BME280;19224;52.462;16.898;2023-04-06T02:54:32;100918.79;;;0.91;98.69
32873;BME280;19224;52.462;16.898;2023-04-06T02:57:02;100917.46;;;0.85;98.65
32873;BME280;19224;52.462;16.898;2023-04-06T02:59:32;100919.22;;;0.88;98.60
32873;BME280;19224;52.462;16.898;2023-04-06T03:02:03;100927.19;;;0.92;98.52
32873;BME280;19224;52.462;16.898;2023-04-06T03:04:33;100927.61;;;0.89;98.74
32873;BME280;19224;52.462;16.898;2023-04-06T03:07:03;100930.70;;;0.87;98.74
32873;BME280;19224;52.462;16.898;2023-04-06T03:09:36;100930.25;;;0.83;98.86
32873;BME280;19224;52.462;16.898;2023-04-06T03:12:06;100938.18;;;0.78;99.48
32873;BME280;19224;52.462;16.898;2023-04-06T03:14:36;100930.67;;;0.79;99.30
32873;BME280;19224;52.462;16.898;2023-04-06T03:17:06;100932.86;;;0.77;99.26
32873;BME280;19224;52.462;16.898;2023-04-06T03:19:37;100941.30;;;0.78;99.52
32873;BME280;19224;52.462;16.898;2023-04-06T03:22:07;100940.81;;;0.77;99.51
32873;BME280;19224;52.462;16.898;2023-04-06T03:24:37;100936.88;;;0.83;99.32
32873;BME280;19224;52.462;16.898;2023-04-06T03:27:08;100930.25;;;0.83;99.19
32873;BME280;19224;52.462;16.898;2023-04-06T03:29:38;100934.67;;;0.87;98.94
32873;BME280;19224;52.462;16.898;2023-04-06T03:32:09;100942.16;;;0.78;98.94
32873;BME280;19224;52.462;16.898;2023-04-06T03:34:40;100941.73;;;0.79;99.09
32873;BME280;19224;52.462;16.898;2023-04-06T03:37:10;100948.77;;;0.77;99.04
32873;BME280;19224;52.462;16.898;2023-04-06T03:39:40;100944.41;;;0.83;98.72
32873;BME280;19224;52.462;16.898;2023-04-06T03:42:11;100950.14;;;0.89;98.51
32873;BME280;19224;52.462;16.898;2023-04-06T03:44:41;100952.30;;;0.76;99.13
32873;BME280;19224;52.462;16.898;2023-04-06T03:47:12;100956.28;;;0.74;99.61
32873;BME280;19224;52.462;16.898;2023-04-06T03:49:42;100955.41;;;0.75;99.25
32873;BME280;19224;52.462;16.898;2023-04-06T03:52:12;100958.05;;;0.75;99.19
32873;BME280;19224;52.462;16.898;2023-04-06T03:54:43;100957.58;;;0.67;99.23
32873;BME280;19224;52.462;16.898;2023-04-06T03:57:13;100957.58;;;0.67;99.68
32873;BME280;19224;52.462;16.898;2023-04-06T03:59:43;100957.58;;;0.67;99.96
32873;BME280;19224;52.462;16.898;2023-04-06T04:02:14;100959.77;;;0.64;100.00
32873;BME280;19224;52.462;16.898;2023-04-06T04:04:44;100960.62;;;0.59;100.00
32873;BME280;19224;52.462;16.898;2023-04-06T04:07:14;100961.48;;;0.59;100.00
32873;BME280;19224;52.462;16.898;2023-04-06T04:09:45;100955.31;;;0.56;99.83
32873;BME280;19224;52.462;16.898;2023-04-06T04:12:16;100957.03;;;0.54;99.72
32873;BME280;19224;52.462;16.898;2023-04-06T04:14:46;100958.33;;;0.45;100.00
32873;BME280;19224;52.462;16.898;2023-04-06T04:17:16;100961.41;;;0.44;99.95
32873;BME280;19224;52.462;16.898;2023-04-06T04:19:46;100960.47;;;0.35;100.00
32873;BME280;19224;52.462;16.898;2023-04-06T04:22:17;100961.75;;;0.29;100.00
32873;BME280;19224;52.462;16.898;2023-04-06T04:24:47;100959.98;;;0.31;100.00
32873;BME280;19224;52.462;16.898;2023-04-06T04:27:18;100954.27;;;0.31;100.00
32873;BME280;19224;52.462;16.898;2023-04-06T04:29:49;100961.75;;;0.32;100.00
32873;BME280;19224;52.462;16.898;2023-04-06T04:32:19;100965.27;;;0.28;100.00
32873;BME280;19224;52.462;16.898;2023-04-06T04:34:50;100967.98;;;0.34;100.00
32873;BME280;19224;52.462;16.898;2023-04-06T04:37:20;100964.88;;;0.37;100.00
32873;BME280;19224;52.462;16.898;2023-04-06T04:39:51;100963.57;;;0.36;100.00
32873;BME280;19224;52.462;16.898;2023-04-06T04:42:21;100967.51;;;0.31;100.00
32873;BME280;19224;52.462;16.898;2023-04-06T04:44:51;100971.95;;;0.34;100.00
32873;BME280;19224;52.462;16.898;2023-04-06T04:47:21;100965.28;;;0.31;100.00
32873;BME280;19224;52.462;16.898;2023-04-06T04:49:51;100967.98;;;0.37;100.00
32873;BME280;19224;52.462;16.898;2023-04-06T04:52:22;100971.97;;;0.40;100.00
32873;BME280;19224;52.462;16.898;2023-04-06T04:54:52;100972.91;;;0.45;100.00
32873;BME280;19224;52.462;16.898;2023-04-06T04:57:22;100977.76;;;0.48;100.00
32873;BME280;19224;52.462;16.898;2023-04-06T04:59:52;100970.27;;;0.48;100.00
32873;BME280;19224;52.462;16.898;2023-04-06T05:02:23;100975.59;;;0.54;100.00
32873;BME280;19224;52.462;16.898;2023-04-06T05:04:53;100972.53;;;0.56;100.00
32873;BME280;19224;52.462;16.898;2023-04-06T05:07:24;100972.52;;;0.54;100.00
32873;BME280;19224;52.462;16.898;2023-04-06T05:09:54;100979.17;;;0.59;100.00
32873;BME280;19224;52.462;16.898;2023-04-06T05:12:24;100973.88;;;0.65;99.81
32873;BME280;19224;52.462;16.898;2023-04-06T05:14:55;100975.21;;;0.65;99.77
32873;BME280;19224;52.462;16.898;2023-04-06T05:17:26;100978.30;;;0.66;100.00
32873;BME280;19224;52.462;16.898;2023-04-06T05:19:56;100977.47;;;0.70;100.00
32873;BME280;19224;52.462;16.898;2023-04-06T05:22:26;100973.05;;;0.75;100.00
32873;BME280;19224;52.462;16.898;2023-04-06T05:24:56;100982.83;;;0.82;100.00
32873;BME280;19224;52.462;16.898;2023-04-06T05:27:26;100986.39;;;0.91;100.00
32873;BME280;19224;52.462;16.898;2023-04-06T05:29:56;100982.86;;;0.89;100.00
32873;BME280;19224;52.462;16.898;2023-04-06T05:32:28;100980.66;;;0.93;100.00
32873;BME280;19224;52.462;16.898;2023-04-06T05:34:58;100984.27;;;1.06;100.00
32873;BME280;19224;52.462;16.898;2023-04-06T05:37:28;100987.36;;;1.10;100.00
32873;BME280;19224;52.462;16.898;2023-04-06T05:39:58;100992.70;;;1.22;100.00
32873;BME280;19224;52.462;16.898;2023-04-06T05:42:38;100987.88;;;1.32;99.33
32873;BME280;19224;52.462;16.898;2023-04-06T05:45:09;100991.02;;;1.46;98.09
32873;BME280;19224;52.462;16.898;2023-04-06T05:47:39;100987.10;;;1.61;96.57
32873;BME280;19224;52.462;16.898;2023-04-06T05:50:11;100989.76;;;1.72;95.71
32873;BME280;19224;52.462;16.898;2023-04-06T05:52:41;100991.10;;;1.84;95.04
32873;BME280;19224;52.462;16.898;2023-04-06T05:55:12;100988.02;;;1.92;94.00
32873;BME280;19224;52.462;16.898;2023-04-06T05:57:43;100982.70;;;1.98;93.53
32873;BME280;19224;52.462;16.898;2023-04-06T06:00:14;100985.81;;;2.05;93.92
32873;BME280;19224;52.462;16.898;2023-04-06T06:02:44;100978.72;;;2.07;92.56
32873;BME280;19224;52.462;16.898;2023-04-06T06:05:14;100985.34;;;2.22;91.99
32873;BME280;19224;52.462;16.898;2023-04-06T06:07:44;100982.69;;;2.30;91.15
32873;BME280;19224;52.462;16.898;2023-04-06T06:10:15;100982.67;;;2.38;90.39
32873;BME280;19224;52.462;16.898;2023-04-06T06:12:45;100982.69;;;2.50;89.61
32873;BME280;19224;52.462;16.898;2023-04-06T06:15:15;100981.35;;;2.48;90.04
32873;BME280;19224;52.462;16.898;2023-04-06T06:17:46;100982.20;;;2.62;89.83
32873;BME280;19224;52.462;16.898;2023-04-06T06:20:17;100981.73;;;2.79;89.01
32873;BME280;19224;52.462;16.898;2023-04-06T06:22:47;100983.03;;;2.85;87.98
32873;BME280;19224;52.462;16.898;2023-04-06T06:25:18;100982.16;;;2.89;88.16
32873;BME280;19224;52.462;16.898;2023-04-06T06:27:48;100984.31;;;2.97;87.33
32873;BME280;19224;52.462;16.898;2023-04-06T06:30:19;100978.95;;;3.11;86.88
32873;BME280;19224;52.462;16.898;2023-04-06T06:32:50;100975.81;;;3.16;86.98
32873;BME280;19224;52.462;16.898;2023-04-06T06:35:20;100985.08;;;3.29;86.30
32873;BME280;19224;52.462;16.898;2023-04-06T06:37:51;100984.12;;;3.42;83.87
32873;BME280;19224;52.462;16.898;2023-04-06T06:40:21;100985.45;;;3.45;83.65
32873;BME280;19224;52.462;16.898;2023-04-06T06:42:53;100985.41;;;3.51;83.21
32873;BME280;19224;52.462;16.898;2023-04-06T06:45:23;100990.69;;;3.59;83.58
32873;BME280;19224;52.462;16.898;2023-04-06T06:47:54;100987.97;;;3.69;83.31
32873;BME280;19224;52.462;16.898;2023-04-06T06:50:25;100984.80;;;3.80;82.03
32873;BME280;19224;52.462;16.898;2023-04-06T06:52:55;100988.73;;;3.89;81.16
32873;BME280;19224;52.462;16.898;2023-04-06T06:55:26;100990.88;;;3.97;79.85
32873;BME280;19224;52.462;16.898;2023-04-06T06:57:56;100989.54;;;3.97;79.12
32873;BME280;19224;52.462;16.898;2023-04-06T07:00:26;100986.84;;;4.03;78.69
32873;BME280;19224;52.462;16.898;2023-04-06T07:02:57;100990.78;;;4.12;76.41
32873;BME280;19224;52.462;16.898;2023-04-06T07:05:27;100984.91;;;4.20;76.60
32873;BME280;19224;52.462;16.898;2023-04-06T07:07:57;100988.88;;;4.26;76.11
32873;BME280;19224;52.462;16.898;2023-04-06T07:10:28;100989.23;;;4.33;75.71
32873;BME280;19224;52.462;16.898;2023-04-06T07:12:58;100982.03;;;4.44;75.07
32873;BME280;19224;52.462;16.898;2023-04-06T07:15:29;100984.61;;;4.56;73.91
32873;BME280;19224;52.462;16.898;2023-04-06T07:18:00;100985.39;;;4.64;71.89
32873;BME280;19224;52.462;16.898;2023-04-06T07:20:30;100985.39;;;4.64;71.93
32873;BME280;19224;52.462;16.898;2023-04-06T07:23:01;100991.98;;;4.71;70.11
32873;BME280;19224;52.462;16.898;2023-04-06T07:25:32;100985.27;;;4.76;68.95
32873;BME280;19224;52.462;16.898;2023-04-06T07:28:03;100983.36;;;4.87;69.27
32873;BME280;19224;52.462;16.898;2023-04-06T07:30:33;100981.94;;;4.96;68.42
32873;BME280;19224;52.462;16.898;2023-04-06T07:33:05;100979.16;;;5.05;68.25
32873;BME280;19224;52.462;16.898;2023-04-06T07:35:36;100983.55;;;5.09;67.25
32873;BME280;19224;52.462;16.898;2023-04-06T07:38:06;100978.20;;;5.10;67.06
32873;BME280;19224;52.462;16.898;2023-04-06T07:40:37;100981.20;;;5.20;67.70
32873;BME280;19224;52.462;16.898;2023-04-06T07:43:07;100979.77;;;5.28;67.11
32873;BME280;19224;52.462;16.898;2023-04-06T07:45:37;100980.14;;;5.33;66.20
32873;BME280;19224;52.462;16.898;2023-04-06T07:48:07;100979.24;;;5.33;64.65
32873;BME280;19224;52.462;16.898;2023-04-06T07:50:40;100982.33;;;5.35;63.93
32873;BME280;19224;52.462;16.898;2023-04-06T07:53:10;100988.95;;;5.40;64.19
32873;BME280;19224;52.462;16.898;2023-04-06T07:55:40;100987.13;;;5.45;62.46
32873;BME280;19224;52.462;16.898;2023-04-06T07:58:10;100980.88;;;5.46;62.55
32873;BME280;19224;52.462;16.898;2023-04-06T08:00:41;100977.31;;;5.44;62.04
32873;BME280;19224;52.462;16.898;2023-04-06T08:03:12;100978.75;;;5.38;62.01
32873;BME280;19224;52.462;16.898;2023-04-06T08:05:42;100981.69;;;5.51;60.93
32873;BME280;19224;52.462;16.898;2023-04-06T08:08:13;100986.66;;;5.44;60.46
32873;BME280;19224;52.462;16.898;2023-04-06T08:10:43;100985.27;;;5.50;60.85
32873;BME280;19224;52.462;16.898;2023-04-06T08:13:14;100984.36;;;5.51;59.81
32873;BME280;19224;52.462;16.898;2023-04-06T08:15:45;100990.55;;;5.54;59.83
32873;BME280;19224;52.462;16.898;2023-04-06T08:18:17;100981.98;;;5.62;60.40
32873;BME280;19224;52.462;16.898;2023-04-06T08:20:47;100983.14;;;5.74;59.66
32873;BME280;19224;52.462;16.898;2023-04-06T08:23:18;100976.86;;;5.80;58.62
32873;BME280;19224;52.462;16.898;2023-04-06T08:25:49;100975.89;;;5.85;58.89
32873;BME280;19224;52.462;16.898;2023-04-06T08:28:22;100972.19;;;5.94;59.04
32873;BME280;19224;52.462;16.898;2023-04-06T08:30:52;100976.06;;;6.01;58.02
32873;BME280;19224;52.462;16.898;2023-04-06T08:33:23;100972.47;;;6.04;57.37
32873;BME280;19224;52.462;16.898;2023-04-06T08:35:53;100969.25;;;6.09;56.88
32873;BME280;19224;52.462;16.898;2023-04-06T08:38:24;100976.42;;;6.07;56.48
32873;BME280;19224;52.462;16.898;2023-04-06T08:40:54;100971.98;;;6.06;56.40
32873;BME280;19224;52.462;16.898;2023-04-06T08:43:26;100966.72;;;6.00;56.53
32873;BME280;19224;52.462;16.898;2023-04-06T08:45:59;100972.95;;;6.02;56.66
32873;BME280;19224;52.462;16.898;2023-04-06T08:48:29;100970.79;;;6.25;56.91
32873;BME280;19224;52.462;16.898;2023-04-06T08:51:00;100970.58;;;6.37;55.88
32873;BME280;19224;52.462;16.898;2023-04-06T08:53:31;100969.09;;;6.46;54.89
32873;BME280;19224;52.462;16.898;2023-04-06T08:56:04;100972.54;;;6.52;54.13
32873;BME280;19224;52.462;16.898;2023-04-06T08:58:37;100976.98;;;6.53;54.63
32873;BME280;19224;52.462;16.898;2023-04-06T09:01:11;100970.79;;;6.50;53.33
32873;BME280;19224;52.462;16.898;2023-04-06T09:03:42;100959.11;;;6.54;53.11
32873;BME280;19224;52.462;16.898;2023-04-06T09:06:14;100967.20;;;6.51;51.88
32873;BME280;19224;52.462;16.898;2023-04-06T09:08:45;100962.63;;;6.34;52.54
32873;BME280;19224;52.462;16.898;2023-04-06T09:11:16;100959.05;;;6.33;52.87
32873;BME280;19224;52.462;16.898;2023-04-06T09:13:55;100956.78;;;6.36;52.48
32873;BME280;19224;52.462;16.898;2023-04-06T09:16:26;100961.93;;;6.46;52.61
32873;BME280;19224;52.462;16.898;2023-04-06T09:19:03;100966.35;;;6.49;52.55
32873;BME280;19224;52.462;16.898;2023-04-06T09:21:32;100959.23;;;6.48;52.20
32873;BME280;19224;52.462;16.898;2023-04-06T09:24:04;100961.98;;;6.45;52.69
32873;BME280;19224;52.462;16.898;2023-04-06T09:26:46;100958.59;;;6.59;52.34
32873;BME280;19224;52.462;16.898;2023-04-06T09:29:24;100958.03;;;6.64;52.13
32873;BME280;19224;52.462;16.898;2023-04-06T09:32:10;100959.16;;;6.52;52.17
32873;BME280;19224;52.462;16.898;2023-04-06T09:34:43;100951.90;;;6.59;52.16
32873;BME280;19224;52.462;16.898;2023-04-06T09:37:19;100954.33;;;6.47;51.54
32873;BME280;19224;52.462;16.898;2023-04-06T09:39:50;100946.61;;;6.56;51.35
32873;BME280;19224;52.462;16.898;2023-04-06T09:42:25;100944.47;;;6.74;51.48
32873;BME280;19224;52.462;16.898;2023-04-06T09:44:56;100943.77;;;6.87;51.22
32873;BME280;19224;52.462;16.898;2023-04-06T09:47:26;100949.54;;;6.88;48.76
32873;BME280;19224;52.462;16.898;2023-04-06T09:49:59;100947.48;;;6.80;48.00
32873;BME280;19224;52.462;16.898;2023-04-06T09:52:33;100944.81;;;6.80;48.32
32873;BME280;19224;52.462;16.898;2023-04-06T09:55:06;100943.42;;;7.03;49.99
32873;BME280;19224;52.462;16.898;2023-04-06T09:57:55;100939.16;;;7.15;49.33
32873;BME280;19224;52.462;16.898;2023-04-06T10:00:26;100933.61;;;7.24;49.64
32873;BME280;19224;52.462;16.898;2023-04-06T10:06:03;100940.59;;;7.51;47.37
32873;BME280;19224;52.462;16.898;2023-04-06T10:08:35;100933.81;;;7.54;46.74
32873;BME280;19224;52.462;16.898;2023-04-06T10:11:11;100928.95;;;7.52;46.90
32873;BME280;19224;52.462;16.898;2023-04-06T10:13:43;100931.09;;;7.57;45.95
32873;BME280;19224;52.462;16.898;2023-04-06T10:16:16;100925.97;;;7.66;46.27
32873;BME280;19224;52.462;16.898;2023-04-06T10:18:52;100930.73;;;7.72;46.79
32873;BME280;19224;52.462;16.898;2023-04-06T10:21:26;100928.67;;;7.64;47.24
32873;BME280;19224;52.462;16.898;2023-04-06T10:24:02;100923.61;;;7.71;47.14
32873;BME280;19224;52.462;16.898;2023-04-06T10:26:34;100927.02;;;7.78;46.92
32873;BME280;19224;52.462;16.898;2023-04-06T10:29:04;100934.20;;;7.58;45.92
32873;BME280;19224;52.462;16.898;2023-04-06T10:31:39;100930.25;;;7.14;45.75
32873;BME280;19224;52.462;16.898;2023-04-06T10:34:10;100918.97;;;7.19;46.94
32873;BME280;19224;52.462;16.898;2023-04-06T10:36:41;100916.37;;;7.16;47.62
32873;BME280;19224;52.462;16.898;2023-04-06T10:39:11;100917.12;;;7.23;47.17
32873;BME280;19224;52.462;16.898;2023-04-06T10:41:45;100915.61;;;7.30;47.65
32873;BME280;19224;52.462;16.898;2023-04-06T10:44:24;100914.22;;;7.33;47.29
32873;BME280;19224;52.462;16.898;2023-04-06T10:46:57;100915.26;;;7.26;47.61
32873;BME280;19224;52.462;16.898;2023-04-06T10:49:30;100915.75;;;7.24;47.82
32873;BME280;19224;52.462;16.898;2023-04-06T10:52:00;100914.91;;;7.41;48.04
32873;BME280;19224;52.462;16.898;2023-04-06T10:54:30;100911.98;;;7.71;48.09
32873;BME280;19224;52.462;16.898;2023-04-06T10:57:01;100905.67;;;7.92;47.19
32873;BME280;19224;52.462;16.898;2023-04-06T10:59:31;100898.99;;;8.08;46.43
32873;BME280;19224;52.462;16.898;2023-04-06T11:02:02;100895.89;;;8.07;46.44
32873;BME280;19224;52.462;16.898;2023-04-06T11:04:32;100895.30;;;7.77;47.79
32873;BME280;19224;52.462;16.898;2023-04-06T11:07:02;100895.70;;;7.97;48.32
32873;BME280;19224;52.462;16.898;2023-04-06T11:09:32;100892.06;;;8.17;46.80
32873;BME280;19224;52.462;16.898;2023-04-06T11:12:05;100895.17;;;8.20;45.47
32873;BME280;19224;52.462;16.898;2023-04-06T11:14:36;100885.95;;;8.12;45.94
32873;BME280;19224;52.462;16.898;2023-04-06T11:17:06;100882.30;;;8.32;46.11
32873;BME280;19224;52.462;16.898;2023-04-06T11:19:36;100882.15;;;8.38;45.85
32873;BME280;19224;52.462;16.898;2023-04-06T11:22:10;100877.47;;;8.46;44.45
32873;BME280;19224;52.462;16.898;2023-04-06T11:24:40;100877.87;;;8.47;45.10
32873;BME280;19224;52.462;16.898;2023-04-06T11:27:10;100880.80;;;8.54;45.70
32873;BME280;19224;52.462;16.898;2023-04-06T11:29:40;100869.01;;;8.60;44.65
32873;BME280;19224;52.462;16.898;2023-04-06T11:32:11;100871.09;;;8.34;44.39
32873;BME280;19224;52.462;16.898;2023-04-06T11:34:41;100863.02;;;8.50;44.67
32873;BME280;19224;52.462;16.898;2023-04-06T11:37:13;100861.44;;;8.59;45.54
32873;BME280;19224;52.462;16.898;2023-04-06T11:39:52;100868.45;;;8.31;44.58
32873;BME280;19224;52.462;16.898;2023-04-06T11:42:29;100871.41;;;8.22;45.04
32873;BME280;19224;52.462;16.898;2023-04-06T11:45:00;100873.83;;;8.31;45.31
32873;BME280;19224;52.462;16.898;2023-04-06T11:47:36;100857.99;;;8.38;44.76
32873;BME280;19224;52.462;16.898;2023-04-06T11:50:12;100861.85;;;8.60;44.82
32873;BME280;19224;52.462;16.898;2023-04-06T11:52:43;100854.92;;;8.84;44.54
32873;BME280;19224;52.462;16.898;2023-04-06T11:55:18;100858.41;;;8.71;43.52
32873;BME280;19224;52.462;16.898;2023-04-06T11:57:48;100850.53;;;8.49;44.08
32873;BME280;19224;52.462;16.898;2023-04-06T12:00:21;100848.19;;;8.37;45.09
32873;BME280;19224;52.462;16.898;2023-04-06T12:02:52;100849.29;;;8.61;44.86
32873;BME280;19224;52.462;16.898;2023-04-06T12:05:22;100848.78;;;8.79;44.81
32873;BME280;19224;52.462;16.898;2023-04-06T12:07:53;100843.05;;;8.91;44.16
32873;BME280;19224;52.462;16.898;2023-04-06T12:10:24;100838.23;;;8.87;43.63
32873;BME280;19224;52.462;16.898;2023-04-06T12:12:54;100841.03;;;8.99;44.50
32873;BME280;19224;52.462;16.898;2023-04-06T12:15:24;100843.21;;;8.54;44.31
32873;BME280;19224;52.462;16.898;2023-04-06T12:17:55;100842.13;;;8.29;44.51
32873;BME280;19224;52.462;16.898;2023-04-06T12:20:25;100838.49;;;8.32;44.58
32873;BME280;19224;52.462;16.898;2023-04-06T12:22:56;100836.84;;;8.42;44.22
32873;BME280;19224;52.462;16.898;2023-04-06T12:25:26;100833.59;;;8.47;44.66
32873;BME280;19224;52.462;16.898;2023-04-06T12:27:56;100833.44;;;8.68;44.53
32873;BME280;19224;52.462;16.898;2023-04-06T12:30:27;100824.23;;;8.76;43.81
32873;BME280;19224;52.462;16.898;2023-04-06T12:32:57;100829.07;;;8.94;43.54
32873;BME280;19224;52.462;16.898;2023-04-06T12:35:27;100822.88;;;8.92;43.64
32873;BME280;19224;52.462;16.898;2023-04-06T12:37:58;100825.19;;;9.04;44.13
32873;BME280;19224;52.462;16.898;2023-04-06T12:40:28;100816.20;;;9.05;44.49
32873;BME280;19224;52.462;16.898;2023-04-06T12:42:59;100812.84;;;8.83;43.70
32873;BME280;19224;52.462;16.898;2023-04-06T12:45:30;100808.92;;;8.94;44.93
32873;BME280;19224;52.462;16.898;2023-04-06T12:48:01;100814.86;;;9.05;44.34
32873;BME280;19224;52.462;16.898;2023-04-06T12:50:31;100802.80;;;9.18;44.46
32873;BME280;19224;52.462;16.898;2023-04-06T12:53:02;100804.38;;;9.25;43.92
32873;BME280;19224;52.462;16.898;2023-04-06T12:55:32;100791.38;;;9.39;44.16
32873;BME280;19224;52.462;16.898;2023-04-06T12:58:03;100793.90;;;9.31;43.40
32873;BME280;19224;52.462;16.898;2023-04-06T13:00:34;100796.07;;;9.33;44.73
32873;BME280;19224;52.462;16.898;2023-04-06T13:03:04;100796.86;;;9.36;43.78
32873;BME280;19224;52.462;16.898;2023-04-06T13:05:34;100794.74;;;9.45;43.05
32873;BME280;19224;52.462;16.898;2023-04-06T13:08:04;100784.02;;;9.44;42.68
32873;BME280;19224;52.462;16.898;2023-04-06T13:10:34;100779.91;;;9.47;43.55